Time;durP1;ratioP1;P1;durP2;ratioP2;P2;SDS_P1;SDS_P2;PMS_P1;PMS_P2;Temp;Humidity;BMP_temperature;BMP_pressure;BME280_temperature;BME280_humidity;BME280_pressure;Samples;Min_cycle;Max_cycle;Signal;HPM_P1;HPM_P2
2021/04/02 00:00:49;;;;;;;;;;;30.90;19.00;;;;;;5048514;28;20003;-73
2021/04/02 00:03:15;;;;;;;;;;;30.80;19.80;;;;;;5051154;28;20098;-73
2021/04/02 00:05:41;;;;;;;;;;;30.70;20.00;;;;;;5052063;28;19917;-73
2021/04/02 00:08:07;;;;;;;;;;;30.60;19.90;;;;;;5032792;28;19916;-73
2021/04/02 00:10:45;;;;;;;;;;;30.60;19.80;;;;;;5049630;28;19917;-72
2021/04/02 00:13:12;;;;;;;;;;;30.60;19.90;;;;;;5052771;28;19909;-71
2021/04/02 00:15:38;;;;;;;;;;;30.60;20.10;;;;;;5034236;28;19916;-73
2021/04/02 00:18:05;;;;;;;;;;;30.60;19.60;;;;;;5042797;28;20223;-72
2021/04/02 00:20:31;;;;;;;;;;;30.50;19.40;;;;;;5049234;28;19923;-73
2021/04/02 00:22:57;;;;;;;;;;;30.30;20.20;;;;;;5053648;28;19909;-72
2021/04/02 00:25:24;;;;;;;;;;;30.30;19.60;;;;;;5053105;28;19916;-73
2021/04/02 00:27:50;;;;;;;;;;;30.20;19.80;;;;;;5052696;28;19912;-72
2021/04/02 00:30:18;;;;;;;;;;;30.10;20.40;;;;;;5052619;28;19916;-73
2021/04/02 00:32:44;;;;;;;;;;;30.00;19.10;;;;;;5053112;28;19917;-73
2021/04/02 00:35:12;;;;;;;;;;;29.90;19.50;;;;;;5050269;28;19939;-73
2021/04/02 00:37:39;;;;;;;;;;;29.70;20.20;;;;;;5052398;28;19917;-73
2021/04/02 00:40:08;;;;;;;;;;;29.70;20.80;;;;;;5049769;28;19978;-72
2021/04/02 00:42:34;;;;;;;;;;;29.70;20.60;;;;;;5048222;28;19940;-72
2021/04/02 00:45:00;;;;;;;;;;;29.50;20.90;;;;;;5053468;28;20261;-72
2021/04/02 00:47:26;;;;;;;;;;;29.50;21.30;;;;;;5056216;28;19919;-72
2021/04/02 00:49:52;;;;;;;;;;;29.50;21.10;;;;;;5058424;28;19916;-73
2021/04/02 00:52:18;;;;;;;;;;;29.40;20.80;;;;;;5057019;28;19913;-72
2021/04/02 00:54:44;;;;;;;;;;;29.30;21.10;;;;;;5038729;28;20318;-72
2021/04/02 00:57:10;;;;;;;;;;;29.10;21.80;;;;;;5057253;28;19904;-72
2021/04/02 00:59:36;;;;;;;;;;;29.10;21.60;;;;;;5056089;28;19908;-72
2021/04/02 01:02:02;;;;;;;;;;;28.90;21.60;;;;;;5056831;28;19904;-72
2021/04/02 01:04:28;;;;;;;;;;;29.00;21.00;;;;;;5056926;28;19959;-72
2021/04/02 01:06:56;;;;;;;;;;;28.70;21.50;;;;;;5053484;28;19905;-73
2021/04/02 01:09:22;;;;;;;;;;;28.50;22.20;;;;;;5052908;28;20395;-72
2021/04/02 01:11:48;;;;;;;;;;;28.60;22.10;;;;;;5054949;28;20003;-72
2021/04/02 01:14:14;;;;;;;;;;;28.70;21.80;;;;;;5052676;28;19999;-72
2021/04/02 01:16:43;;;;;;;;;;;28.60;21.70;;;;;;5056103;28;19908;-72
2021/04/02 01:19:28;;;;;;;;;;;28.30;22.20;;;;;;5058343;28;19944;-72
2021/04/02 01:21:57;;;;;;;;;;;28.10;22.50;;;;;;5058332;28;20472;-72
2021/04/02 01:24:23;;;;;;;;;;;28.20;22.70;;;;;;5060017;28;19923;-72
2021/04/02 01:27:04;;;;;;;;;;;28.10;22.90;;;;;;5038690;28;20278;-72
2021/04/02 01:29:36;;;;;;;;;;;28.00;22.90;;;;;;5047111;28;19913;-72
2021/04/02 01:32:03;;;;;;;;;;;27.70;23.00;;;;;;5055363;28;20319;-71
2021/04/02 01:34:32;;;;;;;;;;;27.50;23.20;;;;;;5052771;28;19908;-73
2021/04/02 01:37:01;;;;;;;;;;;27.30;23.30;;;;;;5054561;28;19916;-73
2021/04/02 01:39:28;;;;;;;;;;;27.10;23.40;;;;;;5055685;28;19931;-72
2021/04/02 01:41:56;;;;;;;;;;;26.90;23.50;;;;;;5054920;28;19933;-73
2021/04/02 01:44:22;;;;;;;;;;;26.90;23.50;;;;;;5053622;28;19919;-73
2021/04/02 01:46:49;;;;;;;;;;;26.80;24.60;;;;;;5056295;28;19970;-73
2021/04/02 01:49:15;;;;;;;;;;;26.70;24.00;;;;;;5036746;28;19915;-72
2021/04/02 01:51:43;;;;;;;;;;;26.60;24.20;;;;;;5056220;28;20254;-72
2021/04/02 01:54:09;;;;;;;;;;;26.40;24.10;;;;;;5053106;28;19948;-72
2021/04/02 01:56:36;;;;;;;;;;;26.20;24.40;;;;;;5035920;28;20338;-73
2021/04/02 01:59:03;;;;;;;;;;;26.00;24.50;;;;;;5056011;28;19904;-72
2021/04/02 02:01:40;;;;;;;;;;;25.70;25.00;;;;;;5038430;28;19909;-72
2021/04/02 02:04:07;;;;;;;;;;;25.40;25.50;;;;;;5055453;28;20251;-72
2021/04/02 02:06:33;;;;;;;;;;;25.40;26.20;;;;;;5055979;28;19912;-72
2021/04/02 02:09:00;;;;;;;;;;;25.40;26.80;;;;;;5054201;28;20384;-73
2021/04/02 02:11:27;;;;;;;;;;;25.20;27.10;;;;;;5055842;28;19919;-73
2021/04/02 02:13:57;;;;;;;;;;;25.30;27.20;;;;;;5047195;28;20416;-73
2021/04/02 02:16:24;;;;;;;;;;;25.00;26.70;;;;;;5027660;28;19917;-73
2021/04/02 02:18:52;;;;;;;;;;;24.80;26.90;;;;;;5035665;28;19964;-72
2021/04/02 02:21:18;;;;;;;;;;;24.70;27.00;;;;;;5053153;28;19954;-73
2021/04/02 02:23:45;;;;;;;;;;;24.30;26.90;;;;;;5047439;28;19978;-73
2021/04/02 02:26:11;;;;;;;;;;;24.20;26.70;;;;;;5052393;28;19959;-73
2021/04/02 02:28:37;;;;;;;;;;;24.10;26.80;;;;;;5053224;28;19917;-73
2021/04/02 02:31:04;;;;;;;;;;;24.00;26.40;;;;;;5053556;28;19967;-74
2021/04/02 02:33:30;;;;;;;;;;;23.80;27.00;;;;;;5056282;28;19931;-73
2021/04/02 02:35:59;;;;;;;;;;;23.80;26.60;;;;;;5054785;28;19952;-73
2021/04/02 02:38:26;;;;;;;;;;;23.70;26.60;;;;;;5037461;28;19917;-72
2021/04/02 02:40:52;;;;;;;;;;;23.60;26.70;;;;;;5050790;28;19916;-73
2021/04/02 02:43:18;;;;;;;;;;;23.30;26.50;;;;;;5035558;28;19977;-73
2021/04/02 02:45:44;;;;;;;;;;;23.00;26.90;;;;;;5053063;28;20346;-73
2021/04/02 02:48:11;;;;;;;;;;;22.90;26.70;;;;;;5053055;28;20322;-72
2021/04/02 02:50:40;;;;;;;;;;;22.80;27.00;;;;;;5052642;28;19919;-74
2021/04/02 02:53:06;;;;;;;;;;;22.60;27.00;;;;;;5055088;28;19909;-73
2021/04/02 02:55:33;;;;;;;;;;;22.50;27.50;;;;;;5050347;28;19924;-73
2021/04/02 02:58:01;;;;;;;;;;;22.40;27.50;;;;;;5053960;28;20357;-73
2021/04/02 03:00:29;;;;;;;;;;;22.20;27.60;;;;;;5037580;28;19909;-73
2021/04/02 03:02:57;;;;;;;;;;;22.20;27.70;;;;;;5053677;28;19912;-73
2021/04/02 03:05:25;;;;;;;;;;;22.00;27.20;;;;;;5053584;28;19944;-73
2021/04/02 03:07:54;;;;;;;;;;;21.70;27.40;;;;;;5056363;28;19931;-72
2021/04/02 03:10:21;;;;;;;;;;;21.50;27.50;;;;;;5039451;28;20329;-73
2021/04/02 03:12:48;;;;;;;;;;;21.20;27.90;;;;;;5065412;28;19940;-73
2021/04/02 03:15:16;;;;;;;;;;;21.20;27.50;;;;;;5049118;28;19948;-73
2021/04/02 03:17:42;;;;;;;;;;;21.20;27.50;;;;;;5058091;28;19905;-73
2021/04/02 03:20:10;;;;;;;;;;;21.00;27.90;;;;;;5053543;28;19913;-73
2021/04/02 03:22:36;;;;;;;;;;;20.90;27.20;;;;;;5053187;28;20346;-72
2021/04/02 03:25:10;;;;;;;;;;;20.90;27.00;;;;;;5051824;28;19944;-72
2021/04/02 03:27:39;;;;;;;;;;;21.10;27.00;;;;;;5034107;28;19909;-72
2021/04/02 03:30:07;;;;;;;;;;;21.10;27.10;;;;;;5051689;28;19964;-72
2021/04/02 03:32:34;;;;;;;;;;;21.10;27.00;;;;;;5052322;28;20389;-72
2021/04/02 03:35:02;;;;;;;;;;;21.00;27.50;;;;;;5034238;28;19987;-72
2021/04/02 03:37:28;;;;;;;;;;;20.90;27.30;;;;;;5053947;28;19960;-71
2021/04/02 03:39:56;;;;;;;;;;;20.70;27.20;;;;;;5052317;28;19909;-72
2021/04/02 03:42:23;;;;;;;;;;;20.70;27.60;;;;;;5054011;28;19913;-72
2021/04/02 03:44:49;;;;;;;;;;;20.70;27.50;;;;;;5054728;28;20286;-71
2021/04/02 03:47:17;;;;;;;;;;;20.50;27.40;;;;;;5053173;28;19916;-72
2021/04/02 03:49:44;;;;;;;;;;;20.30;27.50;;;;;;5035821;28;19959;-72
2021/04/02 03:52:15;;;;;;;;;;;20.30;27.80;;;;;;5034639;28;19951;-72
2021/04/02 03:54:42;;;;;;;;;;;20.20;27.60;;;;;;5051517;28;19913;-72
2021/04/02 03:57:11;;;;;;;;;;;20.10;27.60;;;;;;5054140;28;19913;-72
2021/04/02 03:59:40;;;;;;;;;;;19.90;27.80;;;;;;5053509;28;19969;-72
2021/04/02 04:02:08;;;;;;;;;;;19.70;27.70;;;;;;5053943;28;19964;-72
2021/04/02 04:04:34;;;;;;;;;;;19.50;27.70;;;;;;5053185;28;19920;-72
2021/04/02 04:07:03;;;;;;;;;;;19.40;27.70;;;;;;5053576;28;19991;-71
2021/04/02 04:09:29;;;;;;;;;;;19.30;27.80;;;;;;5053736;28;19909;-71
2021/04/02 04:12:00;;;;;;;;;;;19.10;27.80;;;;;;5036532;28;20266;-72
2021/04/02 04:14:27;;;;;;;;;;;19.00;27.90;;;;;;5035452;28;19909;-71
2021/04/02 04:16:54;;;;;;;;;;;19.00;27.80;;;;;;5034685;28;19915;-72
2021/04/02 04:19:21;;;;;;;;;;;18.90;27.70;;;;;;5037172;28;19908;-72
2021/04/02 04:21:48;;;;;;;;;;;18.90;27.60;;;;;;5055955;28;19943;-71
2021/04/02 04:24:21;;;;;;;;;;;18.80;27.80;;;;;;5056205;28;19908;-72
2021/04/02 04:26:48;;;;;;;;;;;18.80;27.80;;;;;;5055626;28;20246;-72
2021/04/02 04:29:19;;;;;;;;;;;18.80;28.00;;;;;;5041195;28;19911;-72
2021/04/02 04:31:46;;;;;;;;;;;18.60;27.90;;;;;;5053727;28;19913;-71
2021/04/02 04:34:13;;;;;;;;;;;18.60;27.80;;;;;;5057004;28;19908;-72
2021/04/02 04:36:40;;;;;;;;;;;18.50;28.40;;;;;;5039738;28;20338;-72
2021/04/02 04:39:06;;;;;;;;;;;18.50;28.50;;;;;;5057973;28;20020;-72
2021/04/02 04:41:33;;;;;;;;;;;18.40;28.30;;;;;;5056222;28;19923;-71
2021/04/02 04:44:00;;;;;;;;;;;18.30;28.60;;;;;;5056188;28;19908;-72
2021/04/02 04:46:26;;;;;;;;;;;18.30;29.00;;;;;;5057538;28;19909;-71
2021/04/02 04:48:52;;;;;;;;;;;18.20;29.40;;;;;;5055637;28;19962;-71
2021/04/02 04:51:19;;;;;;;;;;;18.10;29.30;;;;;;5055035;28;19931;-72
2021/04/02 04:53:47;;;;;;;;;;;18.00;29.80;;;;;;5057657;28;19951;-72
2021/04/02 04:56:14;;;;;;;;;;;18.00;29.80;;;;;;5038071;28;19916;-72
2021/04/02 04:58:41;;;;;;;;;;;17.80;30.00;;;;;;5038438;28;19909;-72
2021/04/02 05:01:08;;;;;;;;;;;17.80;29.60;;;;;;5038800;28;19908;-72
2021/04/02 05:03:35;;;;;;;;;;;17.60;29.50;;;;;;5058798;28;19912;-72
2021/04/02 05:06:02;;;;;;;;;;;17.50;30.10;;;;;;5063447;28;19909;-72
2021/04/02 05:08:34;;;;;;;;;;;17.50;30.00;;;;;;5062432;28;19954;-71
2021/04/02 05:11:01;;;;;;;;;;;17.30;30.00;;;;;;5059703;28;19912;-72
2021/04/02 05:13:28;;;;;;;;;;;17.20;30.20;;;;;;5055781;28;19908;-72
2021/04/02 05:15:55;;;;;;;;;;;17.20;30.00;;;;;;5057349;28;20289;-72
2021/04/02 05:18:23;;;;;;;;;;;17.20;30.50;;;;;;5036862;28;19917;-72
2021/04/02 05:20:49;;;;;;;;;;;17.00;30.00;;;;;;5038747;28;19986;-71
2021/04/02 05:23:16;;;;;;;;;;;17.00;30.10;;;;;;5037190;28;20058;-72
2021/04/02 05:25:42;;;;;;;;;;;16.90;30.10;;;;;;5037418;28;19908;-72
2021/04/02 05:28:09;;;;;;;;;;;17.00;30.50;;;;;;5057150;28;19928;-72
2021/04/02 05:30:35;;;;;;;;;;;17.00;30.10;;;;;;5056392;28;19905;-72
2021/04/02 05:33:02;;;;;;;;;;;16.90;30.30;;;;;;5053107;28;19909;-72
2021/04/02 05:35:28;;;;;;;;;;;16.80;31.10;;;;;;5053512;28;19916;-72
2021/04/02 05:37:54;;;;;;;;;;;16.80;30.60;;;;;;5051899;28;19909;-72
2021/04/02 05:40:20;;;;;;;;;;;16.60;30.40;;;;;;5038226;28;19930;-72
2021/04/02 05:43:07;;;;;;;;;;;16.60;31.10;;;;;;5052619;28;19919;-72
2021/04/02 05:45:35;;;;;;;;;;;16.40;30.00;;;;;;5038333;28;20015;-72
2021/04/02 05:48:01;;;;;;;;;;;16.20;30.00;;;;;;5054343;28;19940;-72
2021/04/02 05:50:29;;;;;;;;;;;16.10;30.10;;;;;;5056677;28;19986;-72
2021/04/02 05:52:58;;;;;;;;;;;16.10;29.90;;;;;;5056924;28;19919;-71
2021/04/02 05:55:25;;;;;;;;;;;16.20;30.00;;;;;;5054750;28;19935;-72
2021/04/02 05:57:51;;;;;;;;;;;16.20;30.00;;;;;;5055330;28;20004;-73
2021/04/02 06:00:17;;;;;;;;;;;16.20;29.70;;;;;;5055523;28;20429;-72
2021/04/02 06:02:43;;;;;;;;;;;16.20;29.70;;;;;;5056719;28;19919;-72
2021/04/02 06:05:10;;;;;;;;;;;16.30;29.50;;;;;;5056278;28;19923;-72
2021/04/02 06:07:39;;;;;;;;;;;16.40;29.60;;;;;;5038163;28;20337;-72
2021/04/02 06:10:06;;;;;;;;;;;16.40;30.00;;;;;;5055459;28;20326;-72
2021/04/02 06:12:35;;;;;;;;;;;16.40;29.40;;;;;;5055142;28;19938;-72
2021/04/02 06:15:02;;;;;;;;;;;16.40;29.40;;;;;;5054059;28;20021;-72
2021/04/02 06:17:48;;;;;;;;;;;16.40;29.10;;;;;;5035402;28;19913;-72
2021/04/02 06:20:14;;;;;;;;;;;16.60;28.70;;;;;;5051545;28;19905;-72
2021/04/02 06:22:40;;;;;;;;;;;16.60;28.40;;;;;;5034650;28;19908;-72
2021/04/02 06:25:07;;;;;;;;;;;16.50;28.70;;;;;;5036305;28;20263;-72
2021/04/02 06:27:33;;;;;;;;;;;16.70;28.60;;;;;;5052301;28;20319;-72
2021/04/02 06:30:03;;;;;;;;;;;16.40;29.00;;;;;;5044468;28;19912;-72
2021/04/02 06:32:37;;;;;;;;;;;16.40;29.00;;;;;;5054327;28;19923;-72
2021/04/02 06:35:07;;;;;;;;;;;16.40;29.40;;;;;;5050437;28;19917;-71
2021/04/02 06:37:33;;;;;;;;;;;16.50;29.30;;;;;;5035182;28;19912;-71
2021/04/02 06:39:59;;;;;;;;;;;16.50;29.10;;;;;;5051132;28;19909;-71
2021/04/02 06:42:29;;;;;;;;;;;16.40;28.90;;;;;;5053640;28;19931;-72
2021/04/02 06:45:03;;;;;;;;;;;16.40;28.80;;;;;;5051906;28;19996;-72
2021/04/02 06:47:33;;;;;;;;;;;16.50;28.50;;;;;;5053108;28;19908;-72
2021/04/02 06:49:59;;;;;;;;;;;16.50;28.50;;;;;;5052889;28;19904;-72
2021/04/02 06:52:25;;;;;;;;;;;16.40;28.60;;;;;;5046124;28;20314;-72
2021/04/02 06:54:53;;;;;;;;;;;16.50;28.60;;;;;;5045845;28;19909;-72
2021/04/02 06:57:22;;;;;;;;;;;16.50;28.70;;;;;;5052956;28;20438;-72
2021/04/02 06:59:50;;;;;;;;;;;16.40;28.70;;;;;;5056662;28;19976;-71
2021/04/02 07:02:16;;;;;;;;;;;16.30;28.70;;;;;;5060965;28;19913;-72
2021/04/02 07:04:43;;;;;;;;;;;16.20;28.80;;;;;;5039054;28;19908;-72
2021/04/02 07:07:10;;;;;;;;;;;16.20;28.80;;;;;;5054936;28;20374;-72
2021/04/02 07:09:40;;;;;;;;;;;16.20;28.90;;;;;;5054026;28;19909;-72
2021/04/02 07:12:07;;;;;;;;;;;16.30;28.80;;;;;;5033315;28;20468;-72
2021/04/02 07:14:33;;;;;;;;;;;16.30;28.70;;;;;;5047633;28;20277;-72
2021/04/02 07:16:59;;;;;;;;;;;16.50;28.50;;;;;;5051433;28;19915;-72
2021/04/02 07:19:26;;;;;;;;;;;16.40;28.50;;;;;;5050600;28;19917;-72
2021/04/02 07:21:53;;;;;;;;;;;16.50;28.60;;;;;;5038051;28;20350;-72
2021/04/02 07:24:20;;;;;;;;;;;16.50;28.40;;;;;;5038427;28;20002;-72
2021/04/02 07:26:47;;;;;;;;;;;16.40;28.40;;;;;;5024146;28;19909;-73
2021/04/02 07:29:13;;;;;;;;;;;16.40;28.70;;;;;;5049623;28;19920;-73
2021/04/02 07:31:39;;;;;;;;;;;16.40;28.60;;;;;;5051479;28;20003;-72
2021/04/02 07:34:06;;;;;;;;;;;16.20;28.90;;;;;;5054732;28;19951;-72
2021/04/02 07:36:35;;;;;;;;;;;16.20;28.90;;;;;;5052646;28;19920;-72
2021/04/02 07:39:03;;;;;;;;;;;16.20;29.00;;;;;;5053895;28;19971;-72
2021/04/02 07:41:29;;;;;;;;;;;16.40;28.80;;;;;;5033157;28;19952;-72
2021/04/02 07:43:57;;;;;;;;;;;16.20;28.90;;;;;;5053864;28;19909;-72
2021/04/02 07:46:25;;;;;;;;;;;16.40;28.80;;;;;;5052066;28;19919;-72
2021/04/02 07:48:56;;;;;;;;;;;16.20;28.80;;;;;;5054575;28;19908;-72
2021/04/02 07:51:22;;;;;;;;;;;16.00;28.80;;;;;;5036469;28;19920;-72
2021/04/02 07:53:48;;;;;;;;;;;16.00;29.10;;;;;;5053595;28;19995;-72
2021/04/02 07:56:15;;;;;;;;;;;15.90;29.10;;;;;;5057779;28;19908;-72
2021/04/02 07:58:46;;;;;;;;;;;15.90;29.10;;;;;;5059395;28;19909;-72
2021/04/02 08:01:12;;;;;;;;;;;16.00;29.20;;;;;;5041873;28;19964;-72
2021/04/02 08:03:39;;;;;;;;;;;15.90;29.40;;;;;;5059323;28;19966;-72
2021/04/02 08:06:10;;;;;;;;;;;15.80;29.60;;;;;;5055917;28;19927;-72
2021/04/02 08:08:39;;;;;;;;;;;15.50;30.50;;;;;;5057766;28;19908;-72
2021/04/02 08:11:07;;;;;;;;;;;15.40;30.00;;;;;;5059171;28;20004;-72
2021/04/02 08:13:45;;;;;;;;;;;15.40;29.70;;;;;;5042444;28;19960;-72
2021/04/02 08:16:30;;;;;;;;;;;15.30;30.00;;;;;;5057265;28;20279;-73
2021/04/02 08:19:19;;;;;;;;;;;15.30;29.70;;;;;;5059321;28;19908;-71
2021/04/02 08:22:11;;;;;;;;;;;15.30;29.60;;;;;;5032628;28;20280;-73
2021/04/02 08:24:38;;;;;;;;;;;15.40;29.80;;;;;;5056460;28;19916;-73
2021/04/02 08:27:05;;;;;;;;;;;15.40;29.80;;;;;;5059647;28;20362;-73
2021/04/02 08:29:31;;;;;;;;;;;15.50;30.00;;;;;;5058022;28;19915;-73
2021/04/02 08:32:02;;;;;;;;;;;15.60;29.90;;;;;;5059262;28;19913;-73
2021/04/02 08:34:29;;;;;;;;;;;15.50;30.00;;;;;;5058636;28;19909;-73
2021/04/02 08:36:56;;;;;;;;;;;15.50;30.80;;;;;;5057256;28;19919;-73
2021/04/02 08:39:24;;;;;;;;;;;15.40;30.00;;;;;;5059990;28;20007;-73
2021/04/02 08:42:10;;;;;;;;;;;15.50;30.60;;;;;;5059603;28;19909;-73
2021/04/02 08:44:36;;;;;;;;;;;15.50;31.60;;;;;;5058518;28;20455;-73
2021/04/02 08:47:06;;;;;;;;;;;15.70;33.30;;;;;;5055473;28;19999;-73
2021/04/02 08:49:35;;;;;;;;;;;15.80;33.90;;;;;;5060154;28;19913;-73
2021/04/02 08:52:05;;;;;;;;;;;16.00;33.80;;;;;;5059940;28;19917;-73
2021/04/02 08:54:31;;;;;;;;;;;15.80;33.10;;;;;;5067990;28;19908;-73
2021/04/02 08:56:57;;;;;;;;;;;15.80;33.90;;;;;;5051491;28;19912;-72
2021/04/02 08:59:23;;;;;;;;;;;15.80;34.20;;;;;;5063115;28;20015;-72
2021/04/02 09:01:50;;;;;;;;;;;15.80;34.30;;;;;;5058733;28;20008;-73
2021/04/02 09:04:18;;;;;;;;;;;15.80;34.70;;;;;;5057597;28;19940;-72
2021/04/02 09:06:44;;;;;;;;;;;15.80;35.10;;;;;;5055619;28;19914;-72
2021/04/02 09:09:14;;;;;;;;;;;15.90;36.60;;;;;;5055011;28;19916;-72
2021/04/02 09:11:41;;;;;;;;;;;16.00;38.40;;;;;;5055976;28;20002;-72
2021/04/02 09:14:10;;;;;;;;;;;15.90;38.40;;;;;;5054150;28;19919;-72
2021/04/02 09:16:37;;;;;;;;;;;15.70;37.50;;;;;;5054012;28;19946;-73
2021/04/02 09:19:04;;;;;;;;;;;15.70;38.60;;;;;;5055540;28;19939;-72
2021/04/02 09:21:30;;;;;;;;;;;15.70;39.90;;;;;;5055756;28;19926;-72
2021/04/02 09:23:56;;;;;;;;;;;15.80;40.80;;;;;;5055061;28;19995;-72
2021/04/02 09:26:22;;;;;;;;;;;15.80;40.60;;;;;;5055311;28;20384;-72
2021/04/02 09:28:49;;;;;;;;;;;15.60;38.30;;;;;;5054961;28;19925;-72
2021/04/02 09:31:15;;;;;;;;;;;15.30;41.00;;;;;;5054410;28;19912;-72
2021/04/02 09:33:41;;;;;;;;;;;15.20;38.50;;;;;;5055462;28;19920;-72
2021/04/02 09:36:09;;;;;;;;;;;15.00;40.30;;;;;;5053575;28;20250;-72
2021/04/02 09:38:35;;;;;;;;;;;14.80;38.70;;;;;;5047624;28;19909;-72
2021/04/02 09:41:01;;;;;;;;;;;14.70;40.00;;;;;;5054997;28;19908;-72
2021/04/02 09:43:39;;;;;;;;;;;14.40;41.90;;;;;;5054133;28;20295;-73
2021/04/02 09:46:05;;;;;;;;;;;14.40;38.90;;;;;;5046747;28;19913;-72
2021/04/02 09:48:35;;;;;;;;;;;14.40;38.30;;;;;;5056336;28;19920;-72
2021/04/02 09:51:02;;;;;;;;;;;14.30;38.10;;;;;;5052603;28;19928;-73
2021/04/02 09:53:28;;;;;;;;;;;14.20;35.90;;;;;;5056399;28;19924;-72
2021/04/02 09:55:54;;;;;;;;;;;14.20;35.60;;;;;;5055031;28;19908;-72
2021/04/02 09:58:20;;;;;;;;;;;14.20;35.60;;;;;;5053263;28;20261;-72
2021/04/02 10:00:46;;;;;;;;;;;14.10;37.20;;;;;;5053134;28;20288;-72
2021/04/02 10:03:14;;;;;;;;;;;13.90;36.00;;;;;;5037767;28;20011;-72
2021/04/02 10:05:40;;;;;;;;;;;13.90;35.90;;;;;;5055668;28;20276;-73
2021/04/02 10:08:07;;;;;;;;;;;13.80;36.10;;;;;;5053145;28;19917;-73
2021/04/02 10:10:33;;;;;;;;;;;13.70;36.00;;;;;;5056318;28;19905;-72
2021/04/02 10:12:59;;;;;;;;;;;13.60;36.20;;;;;;5052844;28;20330;-73
2021/04/02 10:15:26;;;;;;;;;;;13.60;36.40;;;;;;5053894;28;19940;-73
2021/04/02 10:17:52;;;;;;;;;;;13.50;36.20;;;;;;5055662;28;19946;-73
2021/04/02 10:20:18;;;;;;;;;;;13.40;36.80;;;;;;5051901;28;20456;-73
2021/04/02 10:22:44;;;;;;;;;;;13.30;37.10;;;;;;5054913;28;19909;-72
2021/04/02 10:25:10;;;;;;;;;;;13.30;36.10;;;;;;5054945;28;19909;-73
2021/04/02 10:27:36;;;;;;;;;;;13.30;37.50;;;;;;5053054;28;20372;-73
2021/04/02 10:30:03;;;;;;;;;;;13.10;37.60;;;;;;5037987;28;19912;-72
2021/04/02 10:32:29;;;;;;;;;;;13.00;37.30;;;;;;5054635;28;19974;-73
2021/04/02 10:34:55;;;;;;;;;;;13.00;37.00;;;;;;5055210;28;19944;-73
2021/04/02 10:37:21;;;;;;;;;;;13.00;37.70;;;;;;5054768;28;19954;-73
2021/04/02 10:39:47;;;;;;;;;;;13.00;37.40;;;;;;5053541;28;19913;-73
2021/04/02 10:42:13;;;;;;;;;;;12.80;37.80;;;;;;5055749;28;19908;-73
2021/04/02 10:44:39;;;;;;;;;;;12.80;37.90;;;;;;5056555;28;19908;-72
2021/04/02 10:47:05;;;;;;;;;;;12.70;38.60;;;;;;5038310;28;19966;-74
2021/04/02 10:49:32;;;;;;;;;;;12.70;37.80;;;;;;5056730;28;19965;-73
2021/04/02 10:51:58;;;;;;;;;;;12.60;38.00;;;;;;5043107;28;19945;-73
2021/04/02 10:54:24;;;;;;;;;;;12.50;39.00;;;;;;5061402;28;19921;-72
2021/04/02 10:56:50;;;;;;;;;;;12.50;38.60;;;;;;5053907;28;19974;-73
2021/04/02 10:59:16;;;;;;;;;;;12.50;38.80;;;;;;5055127;28;19912;-73
2021/04/02 11:01:42;;;;;;;;;;;12.40;40.70;;;;;;5051214;28;20254;-73
2021/04/02 11:04:08;;;;;;;;;;;12.30;39.20;;;;;;5036251;28;19908;-74
2021/04/02 11:06:34;;;;;;;;;;;12.30;39.40;;;;;;5055069;28;19913;-73
2021/04/02 11:09:00;;;;;;;;;;;12.30;39.90;;;;;;5054115;28;19912;-73
2021/04/02 11:11:26;;;;;;;;;;;12.30;41.00;;;;;;5037771;28;19909;-73
2021/04/02 11:13:52;;;;;;;;;;;12.20;40.50;;;;;;5050321;28;20358;-73
2021/04/02 11:16:18;;;;;;;;;;;12.20;41.60;;;;;;5049572;28;19908;-73
2021/04/02 11:18:46;;;;;;;;;;;12.10;41.40;;;;;;5054506;28;19919;-73
2021/04/02 11:21:13;;;;;;;;;;;12.10;42.10;;;;;;5054016;28;19912;-73
2021/04/02 11:23:39;;;;;;;;;;;12.10;43.90;;;;;;5054381;28;19912;-73
2021/04/02 11:26:07;;;;;;;;;;;12.10;42.20;;;;;;5053606;28;19920;-73
2021/04/02 11:28:33;;;;;;;;;;;12.10;40.60;;;;;;5053522;28;20266;-73
2021/04/02 11:30:59;;;;;;;;;;;12.10;41.00;;;;;;5053154;28;20354;-73
2021/04/02 11:33:25;;;;;;;;;;;12.10;40.20;;;;;;5037345;28;20415;-73
2021/04/02 11:35:51;;;;;;;;;;;12.10;40.40;;;;;;5035595;28;19956;-72
2021/04/02 11:38:18;;;;;;;;;;;12.00;41.00;;;;;;5053667;28;20268;-73
2021/04/02 11:40:44;;;;;;;;;;;12.00;42.10;;;;;;5054592;28;20250;-74
2021/04/02 11:43:10;;;;;;;;;;;12.00;42.40;;;;;;5054780;28;20413;-74
2021/04/02 11:45:36;;;;;;;;;;;12.00;42.50;;;;;;5048738;28;19913;-74
2021/04/02 11:48:02;;;;;;;;;;;12.00;41.80;;;;;;5036951;28;19920;-73
2021/04/02 11:50:28;;;;;;;;;;;11.90;41.80;;;;;;5052192;28;20261;-73
2021/04/02 11:52:54;;;;;;;;;;;11.90;42.20;;;;;;5036388;28;20314;-74
2021/04/02 11:55:20;;;;;;;;;;;11.90;41.50;;;;;;5049538;28;20412;-74
2021/04/02 11:57:46;;;;;;;;;;;11.80;42.10;;;;;;5051954;28;19912;-73
2021/04/02 12:00:15;;;;;;;;;;;11.80;43.00;;;;;;5035362;28;19919;-73
2021/04/02 12:02:41;;;;;;;;;;;11.80;44.00;;;;;;5055121;28;19905;-74
2021/04/02 12:05:07;;;;;;;;;;;11.70;45.20;;;;;;5035895;28;19924;-74
2021/04/02 12:07:34;;;;;;;;;;;11.80;45.20;;;;;;5054101;28;19950;-74
2021/04/02 12:10:00;;;;;;;;;;;11.70;46.10;;;;;;5052257;28;19908;-73
2021/04/02 12:12:26;;;;;;;;;;;11.70;44.70;;;;;;5035108;28;19913;-73
2021/04/02 12:14:52;;;;;;;;;;;11.60;44.90;;;;;;5055064;28;19967;-73
2021/04/02 12:17:18;;;;;;;;;;;11.60;44.90;;;;;;5052816;28;19913;-74
2021/04/02 12:19:44;;;;;;;;;;;11.60;45.30;;;;;;5054239;28;19946;-73
2021/04/02 12:22:10;;;;;;;;;;;11.50;44.70;;;;;;5052277;28;19996;-74
2021/04/02 12:24:37;;;;;;;;;;;11.50;45.50;;;;;;5054115;28;20350;-73
2021/04/02 12:27:04;;;;;;;;;;;11.40;44.00;;;;;;5053338;28;19920;-74
2021/04/02 12:29:30;;;;;;;;;;;11.40;43.70;;;;;;5053971;28;19995;-73
2021/04/02 12:31:56;;;;;;;;;;;11.40;43.80;;;;;;5053468;28;19963;-72
2021/04/02 12:34:22;;;;;;;;;;;11.40;46.90;;;;;;5054493;28;19920;-74
2021/04/02 12:36:48;;;;;;;;;;;11.40;47.50;;;;;;5054053;28;19913;-74
2021/04/02 12:39:14;;;;;;;;;;;11.60;49.00;;;;;;5036519;28;20361;-73
2021/04/02 12:41:40;;;;;;;;;;;11.60;49.10;;;;;;5036051;28;19947;-74
2021/04/02 12:44:06;;;;;;;;;;;11.60;49.10;;;;;;5061006;28;19935;-73
2021/04/02 12:46:32;;;;;;;;;;;11.40;48.30;;;;;;5067537;28;19931;-73
2021/04/02 12:48:58;;;;;;;;;;;11.30;47.00;;;;;;5053995;28;19919;-73
2021/04/02 12:51:24;;;;;;;;;;;11.20;48.10;;;;;;5045727;28;19913;-73
2021/04/02 12:53:50;;;;;;;;;;;11.20;47.40;;;;;;5056304;28;19999;-74
2021/04/02 12:56:16;;;;;;;;;;;11.10;47.50;;;;;;5057085;28;19908;-74
2021/04/02 12:58:42;;;;;;;;;;;11.10;47.30;;;;;;5046842;28;20331;-73
2021/04/02 13:01:09;;;;;;;;;;;11.00;46.70;;;;;;5055209;28;20338;-74
2021/04/02 13:03:35;;;;;;;;;;;11.00;46.50;;;;;;5056710;28;19912;-73
2021/04/02 13:06:02;;;;;;;;;;;11.10;47.00;;;;;;5055042;28;19909;-73
2021/04/02 13:08:28;;;;;;;;;;;11.10;48.00;;;;;;5056674;28;19975;-73
2021/04/02 13:10:55;;;;;;;;;;;11.00;47.60;;;;;;5040118;28;20011;-73
2021/04/02 13:13:21;;;;;;;;;;;11.00;46.40;;;;;;5056489;28;20265;-73
2021/04/02 13:15:47;;;;;;;;;;;11.00;46.40;;;;;;5054524;28;19915;-74
2021/04/02 13:18:13;;;;;;;;;;;10.90;46.40;;;;;;5055453;28;19909;-73
2021/04/02 13:20:39;;;;;;;;;;;10.90;46.80;;;;;;5056322;28;19970;-73
2021/04/02 13:23:05;;;;;;;;;;;10.90;46.20;;;;;;5055340;28;19995;-74
2021/04/02 13:25:32;;;;;;;;;;;10.90;46.60;;;;;;5056204;28;19999;-74
2021/04/02 13:27:59;;;;;;;;;;;10.90;45.50;;;;;;5056925;28;19913;-73
2021/04/02 13:30:25;;;;;;;;;;;10.90;45.30;;;;;;5055597;28;20321;-73
2021/04/02 13:32:53;;;;;;;;;;;10.90;45.80;;;;;;5054922;28;19923;-73
2021/04/02 13:35:19;;;;;;;;;;;10.80;45.00;;;;;;5052048;28;20396;-74
2021/04/02 13:37:45;;;;;;;;;;;10.90;48.10;;;;;;5057162;28;20336;-73
2021/04/02 13:40:12;;;;;;;;;;;10.90;48.70;;;;;;5054748;28;19916;-73
2021/04/02 13:42:38;;;;;;;;;;;11.00;50.70;;;;;;5055532;28;20012;-73
2021/04/02 13:45:05;;;;;;;;;;;10.90;51.20;;;;;;5055221;28;19947;-73
2021/04/02 13:47:31;;;;;;;;;;;10.90;51.50;;;;;;5056667;28;19909;-73
2021/04/02 13:49:57;;;;;;;;;;;10.80;51.10;;;;;;5057065;28;20337;-73
2021/04/02 13:52:24;;;;;;;;;;;10.80;52.30;;;;;;5056442;28;20013;-74
2021/04/02 13:54:50;;;;;;;;;;;10.80;50.80;;;;;;5053506;28;19908;-73
2021/04/02 13:57:16;;;;;;;;;;;10.80;50.30;;;;;;5055140;28;19909;-72
2021/04/02 13:59:42;;;;;;;;;;;10.80;51.20;;;;;;5054331;28;20232;-73
2021/04/02 14:02:09;;;;;;;;;;;10.80;52.20;;;;;;5056154;28;20281;-73
2021/04/02 14:04:35;;;;;;;;;;;10.70;51.50;;;;;;5055223;28;20003;-73
2021/04/02 14:07:02;;;;;;;;;;;10.70;52.30;;;;;;5053768;28;20019;-73
2021/04/02 14:09:28;;;;;;;;;;;10.70;53.10;;;;;;5056702;28;20003;-73
2021/04/02 14:11:54;;;;;;;;;;;10.70;53.10;;;;;;5056133;28;19959;-73
2021/04/02 14:14:20;;;;;;;;;;;10.60;52.00;;;;;;5057444;28;19971;-73
2021/04/02 14:16:46;;;;;;;;;;;10.50;52.60;;;;;;5039422;28;19959;-74